Time;durP1;ratioP1;P1;durP2;ratioP2;P2;SDS_P1;SDS_P2;PMS_P1;PMS_P2;Temp;Humidity;BMP_temperature;BMP_pressure;BME280_temperature;BME280_humidity;BME280_pressure;Samples;Min_cycle;Max_cycle;Signal;HPM_P1;HPM_P2
2022/05/26 00:00:10;;;;;;;10.68;7.95;;;;;;;12.28;100.00;100389.22;5041909;28;20029;-73
2022/05/26 00:02:38;;;;;;;10.60;7.45;;;;;;;12.34;100.00;100392.97;5041583;28;20115;-73
2022/05/26 00:05:05;;;;;;;11.55;7.93;;;;;;;12.29;100.00;100390.78;5059463;28;20028;-72
2022/05/26 00:07:31;;;;;;;11.23;8.70;;;;;;;12.27;100.00;100395.44;5059745;28;20024;-72
2022/05/26 00:09:57;;;;;;;9.07;7.18;;;;;;;12.27;100.00;100389.72;5025452;28;20433;-73
2022/05/26 00:12:23;;;;;;;11.25;8.27;;;;;;;12.23;100.00;100381.34;5059962;28;20057;-71
2022/05/26 00:14:49;;;;;;;11.35;7.55;;;;;;;12.26;100.00;100388.91;5041456;28;20481;-73
2022/05/26 00:17:15;;;;;;;8.98;7.18;;;;;;;12.27;100.00;100384.00;5059533;28;20021;-73
2022/05/26 00:19:40;;;;;;;8.60;7.10;;;;;;;12.31;100.00;100393.16;5041466;28;20086;-74
2022/05/26 00:22:07;;;;;;;9.32;7.47;;;;;;;12.33;100.00;100393.47;5024784;28;20021;-73
2022/05/26 00:24:32;;;;;;;9.73;7.53;;;;;;;12.32;100.00;100389.03;5059937;28;20536;-72
2022/05/26 00:26:59;;;;;;;9.27;6.88;;;;;;;12.34;100.00;100395.03;5025185;28;20111;-73
2022/05/26 00:29:26;;;;;;;9.93;7.40;;;;;;;12.38;100.00;100390.69;5059252;28;20041;-72
2022/05/26 00:31:54;;;;;;;10.38;7.40;;;;;;;12.44;100.00;100399.38;5059710;28;20037;-73
2022/05/26 00:34:21;;;;;;;9.93;7.43;;;;;;;12.43;100.00;100390.03;5024369;28;20088;-73
2022/05/26 00:36:47;;;;;;;8.55;7.25;;;;;;;12.52;100.00;100400.59;5016328;28;20092;-73
2022/05/26 00:39:22;;;;;;;8.90;7.97;;;;;;;12.52;100.00;100394.88;5016733;28;20035;-72
2022/05/26 00:41:53;;;;;;;9.27;7.20;;;;;;;12.58;100.00;100397.84;5015220;28;20408;-72
2022/05/26 00:44:20;;;;;;;;;;;;;;;12.67;100.00;100398.56;5015432;28;20029;-72
2022/05/26 00:46:54;;;;;;;8.55;7.00;;;;;;;12.78;100.00;100398.72;5015049;28;19929;-72
2022/05/26 00:49:39;;;;;;;8.63;7.03;;;;;;;12.88;99.63;100397.34;4998427;28;20042;-73
2022/05/26 00:52:05;;;;;;;10.05;7.22;;;;;;;12.94;99.03;100403.19;4999417;28;20033;-73
2022/05/26 00:54:40;;;;;;;8.95;6.70;;;;;;;12.95;99.04;100401.91;5014993;28;20025;-72
2022/05/26 00:57:07;;;;;;;8.43;6.93;;;;;;;13.00;98.44;100395.50;5014837;28;20032;-73
2022/05/26 00:59:42;;;;;;;9.15;7.13;;;;;;;13.03;98.85;100400.22;5015708;28;20080;-73
2022/05/26 01:02:08;;;;;;;7.72;6.85;;;;;;;13.08;98.87;100404.44;5014570;28;20088;-73
2022/05/26 01:04:43;;;;;;;8.25;6.75;;;;;;;13.15;99.13;100401.22;4998738;28;20412;-73
2022/05/26 01:07:17;;;;;;;9.07;6.45;;;;;;;13.23;98.62;100400.31;5014611;28;20040;-73
2022/05/26 01:09:44;;;;;;;7.93;6.43;;;;;;;13.25;97.97;100394.91;5014563;28;20364;-73
2022/05/26 01:12:09;;;;;;;7.78;6.32;;;;;;;13.27;97.86;100398.03;5011510;28;20033;-73
2022/05/26 01:14:44;;;;;;;7.82;6.32;;;;;;;13.33;98.04;100393.19;4998020;28;20026;-72
2022/05/26 01:17:25;;;;;;;6.25;5.68;;;;;;;13.43;97.80;100393.88;5014716;28;20038;-73
2022/05/26 01:20:10;;;;;;;6.10;5.00;;;;;;;13.52;97.60;100390.13;5014213;28;20051;-73
2022/05/26 01:22:58;;;;;;;6.43;5.53;;;;;;;13.55;97.08;100389.13;5014208;28;20037;-72
2022/05/26 01:25:30;;;;;;;6.05;5.45;;;;;;;13.57;97.43;100390.19;5015728;28;20105;-74
2022/05/26 01:28:20;;;;;;;6.75;5.70;;;;;;;13.62;97.38;100388.69;5015673;28;20171;-73
2022/05/26 01:31:17;;;;;;;5.80;4.97;;;;;;;13.67;97.10;100385.91;4976941;28;20109;-74
2022/05/26 01:33:47;;;;;;;7.72;5.07;;;;;;;13.73;96.39;100383.91;5020866;28;20100;-72
2022/05/26 01:36:29;;;;;;;5.88;4.20;;;;;;;13.74;96.61;100388.38;5054457;28;20045;-73
2022/05/26 01:38:56;;;;;;;;;;;;;;;13.69;96.75;100386.22;5055372;28;20438;-73
2022/05/26 01:41:37;;;;;;;5.85;4.72;;;;;;;13.66;96.64;100377.84;5054626;28;19967;-72
2022/05/26 01:44:12;;;;;;;6.15;4.00;;;;;;;13.62;96.35;100380.88;5036908;28;20040;-73
2022/05/26 01:46:50;;;;;;;5.05;4.55;;;;;;;13.56;96.44;100379.25;5037086;28;20087;-73
2022/05/26 01:49:24;;;;;;;5.72;4.60;;;;;;;13.49;96.82;100379.66;5037525;28;20112;-73
2022/05/26 01:52:07;;;;;;;5.38;4.38;;;;;;;13.45;96.79;100385.59;5054552;28;20033;-74
2022/05/26 01:54:57;;;;;;;6.18;4.72;;;;;;;13.43;96.60;100382.44;5054693;28;20059;-72
2022/05/26 01:57:38;;;;;;;6.07;4.30;;;;;;;13.39;96.58;100385.50;5036533;28;20035;-71
2022/05/26 02:00:11;;;;;;;4.82;4.30;;;;;;;13.38;96.67;100386.78;5054371;28;20466;-72
2022/05/26 02:03:06;;;;;;;4.88;3.63;;;;;;;13.34;96.69;100385.41;5020287;28;20037;-72
2022/05/26 02:05:44;;;;;;;6.78;4.53;;;;;;;13.32;97.12;100388.75;5054151;28;20112;-73
2022/05/26 02:08:29;;;;;;;5.90;4.03;;;;;;;13.34;97.01;100394.00;5054337;28;20095;-74
2022/05/26 02:11:00;;;;;;;4.60;3.83;;;;;;;13.33;97.14;100390.34;5036357;28;20108;-72
2022/05/26 02:13:33;;;;;;;5.28;4.15;;;;;;;13.32;97.29;100397.34;5036231;28;20075;-73
2022/05/26 02:16:10;;;;;;;5.80;4.65;;;;;;;13.33;97.38;100389.56;5054257;28;20025;-73
2022/05/26 02:18:55;;;;;;;4.95;4.30;;;;;;;13.17;97.00;100367.22;5020818;28;20028;-72
2022/05/26 02:21:34;;;;;;;4.63;4.05;;;;;;;13.29;97.27;100391.84;5053950;28;20035;-72
2022/05/26 02:24:16;;;;;;;7.60;3.90;;;;;;;13.30;97.21;100390.56;5021101;28;20091;-72
2022/05/26 02:26:41;;;;;;;;;;;;;;;13.34;96.99;100391.13;5021319;28;20036;-75
2022/05/26 02:32:00;;;;;;;4.82;3.75;;;;;;;13.30;97.14;100399.13;5054035;28;20036;-72
2022/05/26 02:34:27;;;;;;;5.75;3.55;;;;;;;13.33;96.73;100389.56;5025153;28;20065;-72
2022/05/26 02:36:55;;;;;;;5.63;3.75;;;;;;;13.33;96.62;100393.19;4996613;28;20018;-73
2022/05/26 02:39:21;;;;;;;5.75;3.95;;;;;;;13.28;96.63;100390.25;5013397;28;20033;-73
2022/05/26 02:41:48;;;;;;;3.67;3.28;;;;;;;13.25;96.80;100391.25;5013990;28;20040;-72
2022/05/26 02:44:15;;;;;;;5.03;3.45;;;;;;;13.28;96.79;100396.75;5013091;28;20060;-73
2022/05/26 02:47:09;;;;;;;5.15;3.63;;;;;;;13.27;96.77;100398.03;5014329;28;20467;-72
2022/05/26 02:49:40;;;;;;;4.68;3.67;;;;;;;13.22;96.59;100387.28;5014234;28;20414;-73
2022/05/26 02:52:53;;;;;;;3.35;3.05;;;;;;;13.24;96.31;100389.66;5013884;28;20511;-73
2022/05/26 02:55:19;;;;;;;;;;;;;;;13.25;96.16;100394.13;4976227;28;20545;-73
2022/05/26 02:58:11;;;;;;;4.40;3.65;;;;;;;13.25;96.32;100399.84;4991693;28;20331;-73
2022/05/26 03:00:57;;;;;;;3.35;3.05;;;;;;;13.24;95.91;100396.19;4992195;28;20034;-73
2022/05/26 03:03:36;;;;;;;3.55;3.25;;;;;;;13.22;95.65;100401.59;4975904;28;20053;-73
2022/05/26 03:06:11;;;;;;;3.53;3.20;;;;;;;13.24;95.41;100401.91;4984952;28;20141;-72
2022/05/26 03:08:39;;;;;;;6.03;3.20;;;;;;;13.10;95.24;100385.53;5013808;28;20061;-73
2022/05/26 03:11:29;;;;;;;4.05;3.15;;;;;;;13.30;95.06;100399.94;5012786;28;20030;-73
2022/05/26 03:13:55;;;;;;;3.72;3.33;;;;;;;13.32;95.03;100388.75;5013949;28;20064;-73
2022/05/26 03:16:22;;;;;;;3.40;3.10;;;;;;;13.38;94.01;100394.56;5013799;28;20034;-73
2022/05/26 03:18:48;;;;;;;5.18;3.00;;;;;;;13.37;94.22;100385.19;5012321;28;20133;-73
2022/05/26 03:21:15;;;;;;;3.58;3.20;;;;;;;13.45;93.97;100397.03;5012119;28;20038;-72
2022/05/26 03:23:41;;;;;;;2.80;2.60;;;;;;;13.51;93.72;100395.06;5012140;28;20128;-73
2022/05/26 03:26:07;;;;;;;3.08;2.78;;;;;;;13.60;93.10;100394.13;5012212;28;20476;-72
2022/05/26 03:28:35;;;;;;;3.05;2.50;;;;;;;13.62;92.41;100392.34;5012486;28;20049;-73
2022/05/26 03:31:06;;;;;;;3.20;2.90;;;;;;;13.69;92.51;100394.78;5012373;28;20045;-72
2022/05/26 03:40:46;;;;;;;3.97;2.80;;;;;;;13.65;91.85;100388.50;4980209;28;20030;-72
2022/05/26 03:41:47;;;;;;;3.08;2.50;;;;;;;13.76;91.50;100391.50;5038132;28;20067;-73
2022/05/26 03:44:13;;;;;;;3.55;2.95;;;;;;;13.78;91.00;100391.78;5053003;28;20036;-72
2022/05/26 03:46:39;;;;;;;2.88;2.60;;;;;;;13.82;91.15;100398.09;5018781;28;20033;-72
2022/05/26 03:49:06;;;;;;;4.25;2.72;;;;;;;13.84;90.50;100398.41;5034255;28;20395;-73
2022/05/26 03:51:33;;;;;;;3.42;2.95;;;;;;;13.82;90.23;100392.38;5035272;28;20063;-72
2022/05/26 03:53:58;;;;;;;2.60;2.22;;;;;;;13.86;90.12;100397.13;5053002;28;20031;-71
2022/05/26 03:56:24;;;;;;;3.50;2.60;;;;;;;13.85;90.59;100399.19;5052907;28;20021;-72
2022/05/26 03:58:49;;;;;;;3.25;2.92;;;;;;;13.86;90.37;100397.91;5035162;28;20090;-71
2022/05/26 04:01:14;;;;;;;4.68;2.65;;;;;;;13.82;90.04;100394.44;5053280;28;20112;-73
2022/05/26 04:03:41;;;;;;;3.25;2.80;;;;;;;13.88;90.10;100401.03;5052947;28;20036;-72
2022/05/26 04:06:07;;;;;;;3.78;3.00;;;;;;;13.91;90.55;100399.28;5053038;28;20025;-72
2022/05/26 04:08:33;;;;;;;3.15;2.53;;;;;;;14.01;90.26;100409.28;5037346;28;20112;-73
2022/05/26 04:10:59;;;;;;;3.15;2.60;;;;;;;14.00;89.63;100399.13;5055518;28;20440;-73
2022/05/26 04:13:24;;;;;;;3.03;2.72;;;;;;;14.06;89.11;100400.75;5056256;28;20480;-73
2022/05/26 04:15:58;;;;;;;3.70;3.08;;;;;;;14.16;89.01;100405.06;5056790;28;20033;-73
2022/05/26 04:18:23;;;;;;;3.03;2.70;;;;;;;14.20;89.27;100404.84;5038800;28;20033;-73
2022/05/26 04:20:49;;;;;;;3.30;3.00;;;;;;;14.33;88.68;100408.13;5055214;28;20051;-74
2022/05/26 04:23:15;;;;;;;3.35;2.60;;;;;;;14.46;88.38;100402.84;5055720;28;20037;-73
2022/05/26 04:25:41;;;;;;;2.80;2.35;;;;;;;14.57;87.14;100405.03;5038367;28;20045;-72
2022/05/26 04:28:07;;;;;;;3.05;2.72;;;;;;;14.68;86.73;100402.31;5038332;28;20105;-73
2022/05/26 04:30:35;;;;;;;3.28;2.75;;;;;;;14.85;86.34;100405.34;5038741;28;20040;-73
2022/05/26 04:33:01;;;;;;;2.70;2.38;;;;;;;15.01;85.16;100405.50;5021712;28;20028;-73
2022/05/26 04:35:27;;;;;;;6.45;4.68;;;;;;;15.07;84.21;100403.47;5055658;28;20186;-72
2022/05/26 04:37:52;;;;;;;4.63;2.45;;;;;;;15.03;83.58;100411.53;5021827;28;20514;-73
2022/05/26 04:40:18;;;;;;;5.05;2.05;;;;;;;15.11;83.88;100411.84;5056165;28;20382;-72
2022/05/26 04:42:44;;;;;;;2.42;1.92;;;;;;;15.19;82.80;100406.44;5055964;28;20033;-72
2022/05/26 04:45:13;;;;;;;2.53;2.20;;;;;;;15.30;83.03;100403.66;5038142;28;20037;-73
2022/05/26 04:47:39;;;;;;;2.08;1.98;;;;;;;15.39;82.32;100407.13;5038193;28;20029;-72
2022/05/26 04:50:08;;;;;;;5.22;1.88;;;;;;;15.49;81.71;100411.38;5038010;28;20071;-73
2022/05/26 04:52:35;;;;;;;3.00;1.70;;;;;;;15.59;81.09;100408.34;5037864;28;20470;-72
2022/05/26 04:55:01;;;;;;;1.63;1.35;;;;;;;15.76;80.49;100417.84;5055550;28;20029;-73
2022/05/26 04:57:29;;;;;;;3.17;2.33;;;;;;;15.97;79.34;100413.53;5038028;28;20029;-73
2022/05/26 04:59:55;;;;;;;2.08;1.50;;;;;;;16.41;79.47;100413.75;5037432;28;20025;-73
2022/05/26 05:02:22;;;;;;;3.63;1.45;;;;;;;16.96;75.84;100412.34;5055629;28;20025;-74
2022/05/26 05:05:03;;;;;;;1.38;1.17;;;;;;;17.69;72.51;100416.03;5038231;28;20085;-74
2022/05/26 05:07:30;;;;;;;1.85;1.42;;;;;;;18.29;72.15;100413.53;5037570;28;20407;-73
2022/05/26 05:09:57;;;;;;;2.22;1.30;;;;;;;18.63;67.76;100411.28;5054025;28;20085;-73
2022/05/26 05:12:26;;;;;;;4.88;1.58;;;;;;;18.91;68.34;100409.00;5055199;28;20097;-73
2022/05/26 05:14:54;;;;;;;3.17;1.20;;;;;;;19.22;65.48;100417.19;5037673;28;20032;-73
2022/05/26 05:17:22;;;;;;;1.60;1.13;;;;;;;19.36;63.99;100421.03;5004303;28;20481;-73
2022/05/26 05:19:48;;;;;;;1.13;0.82;;;;;;;19.57;62.72;100422.19;5036522;28;20029;-72
2022/05/26 05:22:20;;;;;;;1.88;1.20;;;;;;;19.69;63.17;100423.63;5020444;28;20051;-74
2022/05/26 05:24:52;;;;;;;1.13;1.02;;;;;;;19.66;60.91;100421.84;5036902;28;20186;-72
2022/05/26 05:27:20;;;;;;;1.23;1.00;;;;;;;19.66;60.95;100424.72;5020299;28;20029;-75
2022/05/26 05:29:47;;;;;;;1.67;0.88;;;;;;;19.68;61.02;100424.97;5036927;28;20036;-73
2022/05/26 05:32:38;;;;;;;1.20;1.02;;;;;;;19.73;61.13;100429.13;5055133;28;20025;-74
2022/05/26 05:35:09;;;;;;;4.97;1.70;;;;;;;19.81;59.86;100430.09;5036303;28;20059;-73
2022/05/26 05:37:36;;;;;;;2.03;1.40;;;;;;;19.87;61.52;100433.72;5054849;28;20275;-75
2022/05/26 05:40:03;;;;;;;1.10;1.10;;;;;;;19.93;61.86;100431.53;5054330;28;20293;-73
2022/05/26 05:42:30;;;;;;;1.98;1.25;;;;;;;19.94;61.46;100435.22;5020559;28;20112;-73
2022/05/26 05:44:58;;;;;;;2.53;1.33;;;;;;;19.99;60.44;100440.94;5020272;28;20036;-73
2022/05/26 05:47:24;;;;;;;3.42;1.08;;;;;;;20.11;60.75;100425.06;5036991;28;20029;-74
2022/05/26 05:49:51;;;;;;;1.60;0.90;;;;;;;20.29;59.89;100432.19;5037159;28;20036;-72
2022/05/26 05:52:20;;;;;;;1.88;1.25;;;;;;;20.31;59.90;100426.69;5037203;28;20087;-73
2022/05/26 05:54:47;;;;;;;1.00;0.90;;;;;;;20.25;59.52;100428.84;5054957;28;20029;-74
2022/05/26 05:57:13;;;;;;;3.28;1.35;;;;;;;20.48;59.76;100435.94;5054587;28;20028;-73
2022/05/26 05:59:40;;;;;;;2.40;1.40;;;;;;;20.62;59.95;100436.84;5036258;28;20025;-74
2022/05/26 06:02:20;;;;;;;4.25;1.20;;;;;;;20.66;59.35;100425.72;5036658;28;20055;-74
2022/05/26 06:04:47;;;;;;;2.33;1.60;;;;;;;20.74;60.79;100428.75;5054604;28;20120;-73
2022/05/26 06:07:21;;;;;;;2.47;1.40;;;;;;;20.82;57.63;100429.72;5054119;28;20022;-73
2022/05/26 06:09:49;;;;;;;5.05;1.50;;;;;;;20.74;59.72;100443.25;5036590;28;20035;-74
2022/05/26 06:12:16;;;;;;;5.38;1.70;;;;;;;20.85;60.50;100446.78;5020209;28;20474;-74
2022/05/26 06:14:46;;;;;;;2.85;1.60;;;;;;;20.95;58.66;100444.25;5036088;28;20029;-74
2022/05/26 06:17:12;;;;;;;2.97;1.40;;;;;;;20.97;59.74;100439.47;5036844;28;20492;-73
2022/05/26 06:19:41;;;;;;;3.13;1.25;;;;;;;20.99;58.47;100450.53;5036083;28;20482;-72
2022/05/26 06:22:18;;;;;;;2.15;1.38;;;;;;;21.02;56.75;100449.41;5036038;28;20490;-74
2022/05/26 06:24:45;;;;;;;1.40;1.30;;;;;;;20.98;57.00;100451.84;5053596;28;20028;-74
2022/05/26 06:30:05;;;;;;;2.33;1.30;;;;;;;21.15;58.90;100448.75;5054101;28;20467;-72
2022/05/26 06:38:24;;;;;;;1.83;1.33;;;;;;;21.92;55.95;100449.53;5013000;28;20099;-73
2022/05/26 06:40:50;;;;;;;2.35;1.50;;;;;;;22.19;53.72;100430.88;5014428;28;20092;-73
2022/05/26 06:43:16;;;;;;;1.83;1.40;;;;;;;22.91;50.41;100448.13;5015196;28;20438;-74
2022/05/26 06:45:42;;;;;;;3.15;1.23;;;;;;;23.32;48.17;100444.53;5012986;28;20084;-74
2022/05/26 06:48:07;;;;;;;2.80;1.60;;;;;;;23.87;44.67;100448.19;4996722;28;20084;-74
2022/05/26 06:50:34;;;;;;;5.93;2.42;;;;;;;24.61;43.87;100452.22;5012886;28;20030;-75
2022/05/26 06:53:01;;;;;;;2.42;1.17;;;;;;;24.72;42.82;100445.25;4996472;28;20053;-74
2022/05/26 06:55:27;;;;;;;2.63;1.42;;;;;;;25.29;42.17;100443.75;5013994;28;20030;-78
2022/05/26 06:57:54;;;;;;;6.40;1.92;;;;;;;25.56;40.87;100446.34;5015066;28;20463;-76
2022/05/26 07:00:20;;;;;;;2.75;1.30;;;;;;;25.97;40.02;100439.38;5013977;28;20038;-74
2022/05/26 07:02:47;;;;;;;4.93;1.20;;;;;;;26.43;38.86;100446.75;5012477;28;20030;-75
2022/05/26 07:05:14;;;;;;;2.45;1.20;;;;;;;26.80;36.85;100450.13;5013923;28;20430;-74
2022/05/26 07:07:40;;;;;;;1.02;0.98;;;;;;;26.93;35.25;100456.56;5012326;28;20391;-75
2022/05/26 07:10:07;;;;;;;0.80;0.80;;;;;;;27.20;35.57;100436.34;5013598;28;20104;-74
2022/05/26 07:12:34;;;;;;;3.15;0.80;;;;;;;27.05;35.00;100451.81;5012213;28;20037;-75
2022/05/26 07:15:03;;;;;;;1.27;1.00;;;;;;;27.42;34.31;100446.34;4996487;28;20042;-74
2022/05/26 07:17:30;;;;;;;2.42;0.88;;;;;;;27.48;34.87;100447.66;4980196;28;20065;-75
2022/05/26 07:20:10;;;;;;;1.75;0.90;;;;;;;27.43;33.72;100447.91;4995740;28;20034;-75
2022/05/26 07:22:38;;;;;;;1.08;0.70;;;;;;;27.72;32.73;100436.63;5012133;28;20379;-75
2022/05/26 07:25:05;;;;;;;0.47;0.47;;;;;;;27.58;33.09;100441.97;4995755;28;20037;-75
2022/05/26 07:27:32;;;;;;;1.27;0.60;;;;;;;27.46;33.37;100443.78;5012805;28;20036;-75
2022/05/26 07:29:59;;;;;;;2.58;0.70;;;;;;;27.21;32.82;100449.59;4995819;28;20038;-76
2022/05/26 07:32:39;;;;;;;2.25;0.70;;;;;;;27.40;32.46;100452.78;5011988;28;20526;-74
2022/05/26 07:35:07;;;;;;;1.70;0.77;;;;;;;27.20;32.65;100456.03;5037959;28;20044;-75
2022/05/26 07:43:12;;;;;;;1.95;1.23;;;;;;;28.00;31.92;100453.75;5039219;28;20043;-75
2022/05/26 07:45:38;;;;;;;0.80;0.65;;;;;;;28.51;31.03;100453.09;5039128;28;20032;-75
2022/05/26 07:48:05;;;;;;;3.20;1.00;;;;;;;28.97;30.66;100459.22;5038959;28;20024;-76
2022/05/26 07:50:31;;;;;;;1.25;0.70;;;;;;;29.13;29.39;100451.00;5056928;28;20528;-74
2022/05/26 07:52:58;;;;;;;0.38;0.38;;;;;;;29.40;30.27;100451.06;5056033;28;20088;-76
2022/05/26 07:55:25;;;;;;;1.50;0.57;;;;;;;29.60;29.25;100458.59;5022416;28;20386;-74
2022/05/26 07:57:50;;;;;;;3.55;0.90;;;;;;;29.09;28.28;100433.84;5036203;28;20071;-74
2022/05/26 08:00:18;;;;;;;0.40;0.40;;;;;;;28.81;29.79;100460.81;5056693;28;20056;-75
2022/05/26 08:02:44;;;;;;;1.38;0.75;;;;;;;28.85;28.54;100457.44;5052914;28;20036;-75
2022/05/26 08:05:12;;;;;;;0.90;0.30;;;;;;;28.84;29.95;100458.81;5021877;28;20028;-75
2022/05/26 08:07:39;;;;;;;1.92;0.32;;;;;;;28.97;30.51;100456.28;5038943;28;20029;-75
2022/05/26 08:10:07;;;;;;;0.85;0.45;;;;;;;28.68;28.58;100452.31;5022114;28;20033;-75
2022/05/26 08:12:33;;;;;;;0.98;0.50;;;;;;;28.55;30.14;100452.66;5038594;28;20025;-76
2022/05/26 08:14:59;;;;;;;1.50;0.40;;;;;;;28.38;28.81;100443.84;5056235;28;20373;-74
2022/05/26 08:17:24;;;;;;;0.40;0.38;;;;;;;28.27;30.26;100448.81;5056171;28;20075;-75
2022/05/26 08:19:51;;;;;;;0.77;0.50;;;;;;;27.64;29.03;100450.50;5038663;28;20032;-75
2022/05/26 08:22:18;;;;;;;1.00;0.50;;;;;;;27.82;30.03;100455.88;5021767;28;20028;-75
2022/05/26 08:24:52;;;;;;;0.50;0.43;;;;;;;27.81;28.44;100430.88;5005615;28;20036;-74
2022/05/26 08:27:19;;;;;;;3.75;0.30;;;;;;;27.58;29.23;100452.91;5005499;28;20025;-75
2022/05/26 08:29:44;;;;;;;0.30;0.30;;;;;;;27.70;29.22;100462.78;5037516;28;20386;-74
2022/05/26 08:32:10;;;;;;;1.17;0.52;;;;;;;27.50;29.72;100444.19;5038450;28;20025;-75
2022/05/26 08:34:35;;;;;;;0.38;0.30;;;;;;;27.51;29.75;100459.59;5026479;28;20050;-75
2022/05/26 08:37:03;;;;;;;0.70;0.50;;;;;;;27.80;30.21;100457.81;5015751;28;20427;-75
2022/05/26 08:39:33;;;;;;;0.82;0.40;;;;;;;27.60;29.92;100456.78;5015747;28;20068;-74
2022/05/26 08:41:58;;;;;;;0.32;0.32;;;;;;;27.35;30.44;100458.88;5014605;28;20161;-75
2022/05/26 08:44:34;;;;;;;1.52;0.50;;;;;;;27.74;29.03;100466.06;5014555;28;20077;-73
2022/05/26 08:47:10;;;;;;;2.88;0.55;;;;;;;27.87;28.18;100457.78;5014672;28;20033;-74
2022/05/26 08:49:56;;;;;;;1.35;0.47;;;;;;;28.43;28.74;100451.59;5014489;28;20120;-73
2022/05/26 08:52:30;;;;;;;1.52;0.65;;;;;;;28.88;28.21;100459.16;5014642;28;20037;-74
2022/05/26 08:55:04;;;;;;;1.33;0.60;;;;;;;28.71;29.29;100459.91;4996918;28;20025;-73
2022/05/26 08:57:50;;;;;;;0.43;0.40;;;;;;;28.53;28.94;100461.28;5015453;28;20045;-74
2022/05/26 09:00:29;;;;;;;1.35;0.60;;;;;;;28.44;31.19;100464.88;5016212;28;20021;-74
2022/05/26 09:02:59;;;;;;;3.40;0.40;;;;;;;28.71;29.62;100456.97;4998426;28;20037;-74
2022/05/26 09:05:30;;;;;;;0.90;0.80;;;;;;;28.88;29.67;100465.78;4998585;28;20108;-75
2022/05/26 09:13:39;;;;;;;2.38;0.80;;;;;;;29.32;29.18;100456.25;5014598;28;20044;-75
2022/05/26 09:16:07;;;;;;;2.25;0.57;;;;;;;29.23;28.99;100451.06;5015749;28;20022;-74
2022/05/26 09:18:34;;;;;;;2.72;0.85;;;;;;;29.57;27.95;100459.78;5014582;28;20030;-74
2022/05/26 09:21:29;;;;;;;3.13;0.73;;;;;;;29.36;27.19;100462.44;4998433;28;20034;-79
2022/05/26 09:24:31;;;;;;;3.63;1.00;;;;;;;29.02;27.61;100458.19;5014646;28;20367;-77
2022/05/26 09:27:01;;;;;;;1.27;1.00;;;;;;;28.77;29.30;100469.25;5011913;28;20130;-76
2022/05/26 09:29:47;;;;;;;9.27;2.30;;;;;;;28.44;29.10;100471.53;5015341;28;20057;-76
2022/05/26 09:32:29;;;;;;;0.90;0.50;;;;;;;28.46;30.46;100470.94;5011012;28;20074;-77
2022/05/26 09:35:02;;;;;;;0.30;0.30;;;;;;;28.29;29.19;100460.75;5036058;28;20079;-75
2022/05/26 09:37:47;;;;;;;0.75;0.40;;;;;;;28.36;31.02;100470.84;5054701;28;20064;-74
2022/05/26 09:40:29;;;;;;;0.60;0.55;;;;;;;28.35;28.83;100472.22;5020282;28;20068;-75
2022/05/26 09:43:17;;;;;;;2.60;1.05;;;;;;;27.92;29.89;100465.53;5055213;28;20037;-75
2022/05/26 09:45:45;;;;;;;3.03;0.63;;;;;;;28.12;31.03;100463.63;5054803;28;20029;-75
2022/05/26 09:48:18;;;;;;;6.15;0.70;;;;;;;27.95;30.23;100457.69;5036621;28;20111;-75
2022/05/26 09:51:04;;;;;;;2.45;1.15;;;;;;;27.84;30.57;100453.09;5054688;28;20117;-76
2022/05/26 09:53:42;;;;;;;0.73;0.55;;;;;;;27.75;30.19;100444.97;5037796;28;20048;-73
2022/05/26 09:56:32;;;;;;;1.00;0.47;;;;;;;27.87;30.95;100445.28;5037862;28;20028;-76
2022/05/26 09:58:57;;;;;;;1.88;0.60;;;;;;;27.88;30.56;100455.59;5037062;28;20029;-77
2022/05/26 10:01:26;;;;;;;1.67;0.40;;;;;;;27.76;30.69;100451.63;5036525;28;20031;-76
2022/05/26 10:04:19;;;;;;;3.88;0.60;;;;;;;27.63;30.76;100455.59;5054321;28;20029;-77
2022/05/26 10:06:57;;;;;;;0.77;0.30;;;;;;;27.13;30.84;100457.66;5053825;28;20068;-75
2022/05/26 10:09:49;;;;;;;0.50;0.32;;;;;;;26.50;31.76;100451.78;5036067;28;20339;-75
2022/05/26 10:12:45;;;;;;;0.32;0.32;;;;;;;26.21;33.99;100457.09;5051393;28;20394;-76
2022/05/26 10:15:48;;;;;;;0.47;0.47;;;;;;;26.36;33.20;100470.13;5036202;28;20032;-75
2022/05/26 10:18:32;;;;;;;2.45;0.45;;;;;;;26.34;33.71;100464.09;5054259;28;20465;-77
2022/05/26 10:21:09;;;;;;;1.85;0.70;;;;;;;26.45;33.59;100455.69;5054253;28;20033;-74
2022/05/26 10:23:59;;;;;;;1.23;0.40;;;;;;;26.53;32.28;100453.56;5036414;28;20397;-77
2022/05/26 10:26:53;;;;;;;0.60;0.40;;;;;;;26.72;32.65;100466.94;5036924;28;20462;-76
2022/05/26 10:30:00;;;;;;;2.63;0.90;;;;;;;26.80;32.77;100462.59;5037268;28;20148;-75
2022/05/26 10:32:32;;;;;;;0.50;0.50;;;;;;;26.70;32.44;100470.44;5054459;28;20055;-77
2022/05/26 10:35:28;;;;;;;0.40;0.40;;;;;;;26.70;31.95;100463.81;5058089;28;20060;-76
2022/05/26 10:38:03;;;;;;;0.93;0.40;;;;;;;26.57;33.61;100476.53;5068598;28;20104;-76
2022/05/26 10:40:45;;;;;;;1.92;0.47;;;;;;;26.73;33.78;100463.44;5061577;28;20163;-74
2022/05/26 10:43:15;;;;;;;0.50;0.50;;;;;;;26.62;32.71;100467.56;5051865;28;20041;-79
2022/05/26 10:45:44;;;;;;;0.82;0.40;;;;;;;26.53;32.01;100467.38;5053370;28;20040;-73
2022/05/26 10:48:16;;;;;;;1.15;0.47;;;;;;;26.18;33.23;100469.16;5002773;28;20037;-73
2022/05/26 10:51:10;;;;;;;2.83;0.70;;;;;;;26.19;32.90;100471.50;5053336;28;20032;-74
2022/05/26 10:53:54;;;;;;;0.65;0.40;;;;;;;25.97;33.50;100468.56;5053371;28;20181;-74
2022/05/26 10:56:58;;;;;;;0.28;0.28;;;;;;;25.68;33.52;100467.97;5053614;28;20025;-73
2022/05/26 10:59:50;;;;;;;1.70;0.90;;;;;;;25.73;35.63;100467.00;5027233;28;20041;-78
2022/05/26 11:02:25;;;;;;;2.90;0.38;;;;;;;25.93;34.62;100479.88;5036050;28;20103;-77
2022/05/26 11:05:14;;;;;;;0.75;0.40;;;;;;;25.96;34.77;100490.38;5035746;28;20551;-75
2022/05/26 11:07:52;;;;;;;1.98;0.63;;;;;;;25.59;34.93;100489.75;5035325;28;20029;-73
2022/05/26 11:11:04;;;;;;;0.88;0.38;;;;;;;25.38;36.42;100486.16;5019143;28;20492;-74
2022/05/26 11:13:59;;;;;;;6.20;0.68;;;;;;;25.56;36.13;100479.22;4975661;28;20108;-76
2022/05/26 11:19:46;;;;;;;1.25;0.52;;;;;;;25.82;34.93;100475.19;5052885;28;20038;-76
2022/05/26 11:22:13;;;;;;;0.35;0.30;;;;;;;25.73;33.92;100478.69;5044694;28;20085;-73
2022/05/26 11:24:40;;;;;;;2.05;0.47;;;;;;;25.57;33.58;100488.78;5018761;28;20021;-76
2022/05/26 11:27:12;;;;;;;1.05;0.30;;;;;;;25.37;34.78;100476.63;5035434;28;20136;-76
2022/05/26 11:29:44;;;;;;;0.20;0.20;;;;;;;25.49;34.44;100479.19;5053447;28;20031;-76
2022/05/26 11:38:14;;;;;;;0.30;0.30;;;;;;;25.06;33.91;100482.97;4991570;28;20038;-76
2022/05/26 11:40:58;;;;;;;0.60;0.20;;;;;;;25.02;34.76;100486.22;4996408;28;20041;-75
2022/05/26 11:43:55;;;;;;;0.47;0.30;;;;;;;24.88;35.66;100494.34;5013398;28;20026;-75
2022/05/26 11:46:46;;;;;;;1.85;0.40;;;;;;;24.44;36.13;100490.56;4976868;28;20137;-76
2022/05/26 11:49:43;;;;;;;0.80;0.35;;;;;;;24.47;36.64;100477.75;5012930;28;20026;-77
2022/05/26 11:52:35;;;;;;;0.40;0.40;;;;;;;24.67;36.34;100479.03;5014796;28;20475;-75
2022/05/26 11:55:15;;;;;;;3.30;0.60;;;;;;;24.93;35.37;100469.28;4986515;28;20117;-74
2022/05/26 11:57:44;;;;;;;0.50;0.25;;;;;;;25.03;35.62;100470.31;5013162;28;20046;-76
2022/05/26 12:00:15;;;;;;;0.68;0.40;;;;;;;25.37;35.50;100462.06;5013000;28;20030;-76
2022/05/26 12:02:45;;;;;;;0.50;0.40;;;;;;;25.48;34.10;100460.91;5013023;28;20030;-77
2022/05/26 12:05:31;;;;;;;0.90;0.40;;;;;;;25.48;33.58;100466.75;4979747;28;20050;-75
2022/05/26 12:08:03;;;;;;;0.95;0.50;;;;;;;25.51;33.54;100456.03;5012965;28;20033;-74
2022/05/26 12:10:39;;;;;;;1.92;0.45;;;;;;;25.48;33.38;100452.16;5011297;28;20041;-76
2022/05/26 12:13:25;;;;;;;0.32;0.32;;;;;;;25.66;34.61;100467.78;4979296;28;20026;-76
2022/05/26 12:16:08;;;;;;;1.27;0.40;;;;;;;25.86;33.20;100454.34;5012684;28;20131;-75
2022/05/26 12:18:39;;;;;;;0.57;0.40;;;;;;;26.06;33.23;100448.31;5013559;28;20101;-76
2022/05/26 12:21:33;;;;;;;;;;;;;;;26.11;31.74;100452.41;5013751;28;20108;-76
2022/05/26 12:24:36;;;;;;;0.60;0.50;;;;;;;25.98;31.44;100450.47;5013059;28;20000;-76
2022/05/26 12:27:03;;;;;;;1.02;0.30;;;;;;;25.85;31.08;100453.59;5013140;28;20105;-75
2022/05/26 12:29:47;;;;;;;1.33;0.38;;;;;;;25.48;32.74;100448.47;5013867;28;20084;-78
2022/05/26 12:32:19;;;;;;;1.27;0.40;;;;;;;25.30;31.59;100447.47;5016392;28;20463;-79